Time;durP1;ratioP1;P1;durP2;ratioP2;P2;SDS_P1;SDS_P2;PMS_P1;PMS_P2;Temp;Humidity;BMP_temperature;BMP_pressure;BME280_temperature;BME280_humidity;BME280_pressure;Samples;Min_cycle;Max_cycle;Signal;HPM_P1;HPM_P2
2022/08/17 06:19:32;;;;;;;16.40;14.90;;;22.70;1.00;;;;;;4880697;27;4963266;-76
2022/08/17 06:22:04;;;;;;;17.87;16.07;;;23.30;1.00;;;;;;5037840;28;20249;-79
2022/08/17 06:24:42;;;;;;;18.80;16.97;;;23.40;1.00;;;;;;5042648;28;20570;-82
2022/08/17 06:27:23;;;;;;;16.00;14.37;;;23.50;1.00;;;;;;5052695;28;20530;-80
2022/08/17 06:30:01;;;;;;;16.63;14.87;;;23.60;1.00;;;;;;5026464;28;21012;-78
2022/08/17 06:32:30;;;;;;;16.90;15.20;;;23.70;1.00;;;;;;5048720;28;20460;-87
2022/08/17 06:35:06;;;;;;;15.50;14.20;;;23.80;1.00;;;;;;5040424;28;20455;-85
2022/08/17 06:38:01;;;;;;;17.97;15.13;;;23.90;1.00;;;;;;5054918;28;20483;-86
2022/08/17 06:40:50;;;;;;;17.83;16.13;;;24.00;1.00;;;;;;5048088;28;20541;-80
2022/08/17 06:43:33;;;;;;;16.40;14.90;;;24.10;1.00;;;;;;5045177;28;20414;-82
2022/08/17 06:46:06;;;;;;;18.00;13.83;;;24.10;1.00;;;;;;5043417;28;20500;-81
2022/08/17 06:48:42;;;;;;;14.37;12.87;;;24.20;1.00;;;;;;5050700;28;20453;-78
2022/08/17 06:51:24;;;;;;;15.20;13.37;;;24.40;1.00;;;;;;5050702;28;20479;-82
2022/08/17 06:53:58;;;;;;;36.47;18.10;;;24.50;1.00;;;;;;5036174;28;20486;-79
2022/08/17 06:56:33;;;;;;;14.37;12.70;;;24.60;1.00;;;;;;5060006;28;20538;-82
2022/08/17 06:59:02;;;;;;;17.10;12.37;;;24.70;1.00;;;;;;5049063;28;20433;-77
2022/08/17 07:01:33;;;;;;;15.70;12.00;;;24.80;1.00;;;;;;5054323;28;20470;-80
2022/08/17 07:04:08;;;;;;;14.03;12.60;;;25.00;1.00;;;;;;5046399;28;21394;-79
2022/08/17 07:06:40;;;;;;;14.80;13.30;;;25.10;1.00;;;;;;5047136;28;20455;-83
2022/08/17 07:09:13;;;;;;;14.07;12.00;;;25.30;1.00;;;;;;5052059;28;20535;-80
2022/08/17 07:11:51;;;;;;;14.70;12.50;;;25.50;1.00;;;;;;5046208;28;20492;-78
2022/08/17 07:14:35;;;;;;;11.27;10.17;;;25.60;1.00;;;;;;5057186;28;20410;-80
2022/08/17 07:17:12;;;;;;;13.10;11.80;;;25.70;1.00;;;;;;5034849;28;20457;-79
2022/08/17 07:19:41;;;;;;;12.30;11.20;;;25.90;1.00;;;;;;5046980;28;20915;-84
2022/08/17 07:22:21;;;;;;;12.70;11.00;;;26.00;1.00;;;;;;5048549;28;20457;-84
2022/08/17 07:24:56;;;;;;;16.33;11.50;;;26.20;1.00;;;;;;5044361;28;20417;-77
2022/08/17 07:27:26;;;;;;;11.60;10.37;;;26.40;1.00;;;;;;5038988;28;20457;-80
2022/08/17 07:30:01;;;;;;;10.47;9.57;;;26.60;1.00;;;;;;5022298;28;20462;-80
2022/08/17 07:32:31;;;;;;;14.50;10.73;;;26.70;1.00;;;;;;5023769;28;20511;-79
2022/08/17 07:35:13;;;;;;;11.13;10.13;;;26.70;1.00;;;;;;5040179;28;20471;-80
2022/08/17 07:37:45;;;;;;;11.17;10.17;;;26.80;1.00;;;;;;5037619;28;20426;-83
2022/08/17 07:40:21;;;;;;;11.60;10.00;;;27.00;1.00;;;;;;5024047;28;20518;-84
2022/08/17 07:43:17;;;;;;;13.93;10.80;;;27.10;1.00;;;;;;5033762;28;20504;-79
2022/08/17 07:49:22;;;;;;;10.10;9.10;;;27.40;1.00;;;;;;5036198;28;20433;-79
2022/08/17 07:52:11;;;;;;;13.23;11.83;;;27.60;1.00;;;;;;5042038;28;20495;-80
2022/08/17 07:54:44;;;;;;;11.23;10.23;;;27.80;1.00;;;;;;5039505;28;20472;-80
2022/08/17 07:57:35;;;;;;;10.53;9.27;;;28.00;1.00;;;;;;5036963;28;20456;-81
2022/08/17 08:00:23;;;;;;;14.20;12.80;;;28.10;1.00;;;;;;5038941;28;20458;-83
2022/08/17 08:03:14;;;;;;;10.37;9.37;;;28.20;1.00;;;;;;5023501;28;20446;-82
2022/08/17 08:05:50;;;;;;;10.43;9.43;;;28.30;1.00;;;;;;5020540;28;20451;-82
2022/08/17 08:08:26;;;;;;;10.00;8.60;;;28.50;1.00;;;;;;5007950;28;20442;-83
2022/08/17 08:11:14;;;;;;;12.70;9.50;;;28.60;1.00;;;;;;5033297;28;20457;-83
2022/08/17 08:13:44;;;;;;;10.67;9.53;;;28.70;1.00;;;;;;5037096;28;20401;-81
2022/08/17 08:16:25;;;;;;;10.73;9.30;;;28.80;1.00;;;;;;5018042;28;20596;-80
2022/08/17 08:18:55;;;;;;;12.30;8.87;;;28.90;1.00;;;;;;5033747;28;20449;-80
2022/08/17 08:21:35;;;;;;;9.40;8.20;;;29.10;1.00;;;;;;5038957;28;20472;-80
2022/08/17 08:24:25;;;;;;;8.93;6.00;;;29.20;1.00;;;;;;5041496;28;20465;-83
2022/08/17 08:27:06;;;;;;;10.20;7.33;;;29.20;1.00;;;;;;5042513;28;20630;-80
2022/08/17 08:29:44;;;;;;;7.13;5.93;;;29.40;1.00;;;;;;5029734;28;20417;-82
2022/08/17 08:32:21;;;;;;;9.30;7.17;;;29.50;1.00;;;;;;5032799;28;20594;-78
2022/08/17 08:35:02;;;;;;;9.80;7.67;;;29.60;1.00;;;;;;5037522;28;20548;-79
2022/08/17 08:37:41;;;;;;;7.80;7.00;;;29.60;1.00;;;;;;5041442;28;20468;-79
2022/08/17 08:40:24;;;;;;;8.30;7.13;;;29.70;1.00;;;;;;5021500;28;20465;-77
2022/08/17 08:43:06;;;;;;;9.57;6.77;;;29.80;1.00;;;;;;5043304;28;21151;-81
2022/08/17 08:45:44;;;;;;;11.10;8.00;;;30.00;1.00;;;;;;5041623;28;20543;-81
2022/08/17 08:48:28;;;;;;;6.80;5.60;;;30.10;1.00;;;;;;5041409;28;20467;-81
2022/08/17 08:51:07;;;;;;;9.77;7.40;;;30.20;1.00;;;;;;5036769;28;20426;-80
2022/08/17 08:53:47;;;;;;;11.70;7.67;;;30.30;1.00;;;;;;5035104;28;20527;-79
2022/08/17 08:56:27;;;;;;;10.30;6.83;;;30.40;1.00;;;;;;5031851;28;20461;-80
2022/08/17 08:59:05;;;;;;;8.50;6.60;;;30.50;1.00;;;;;;5022428;28;20539;-84
2022/08/17 09:01:42;;;;;;;13.03;6.70;;;30.60;1.00;;;;;;5014136;28;20481;-83
2022/08/17 09:04:30;;;;;;;8.80;6.00;;;30.80;1.00;;;;;;5018268;28;20430;-83
2022/08/17 09:07:10;;;;;;;12.20;6.70;;;30.90;1.00;;;;;;5020894;28;21232;-83
2022/08/17 09:09:49;;;;;;;7.50;6.20;;;31.00;1.00;;;;;;5023047;28;20478;-81
2022/08/17 09:12:28;;;;;;;7.90;6.00;;;31.10;1.00;;;;;;5022757;28;20456;-80
2022/08/17 09:15:05;;;;;;;9.07;6.20;;;31.20;1.00;;;;;;5009674;28;20487;-78
2022/08/17 09:17:41;;;;;;;6.77;5.97;;;31.30;1.00;;;;;;5000384;28;20878;-79
2022/08/17 09:20:24;;;;;;;7.47;5.77;;;31.40;1.00;;;;;;5017132;28;20469;-79
2022/08/17 09:22:59;;;;;;;11.30;6.17;;;31.50;1.00;;;;;;5010838;28;20445;-80
2022/08/17 09:25:31;;;;;;;9.40;7.30;;;31.60;1.00;;;;;;5020393;28;20465;-84
2022/08/17 09:28:15;;;;;;;8.93;6.47;;;31.80;1.00;;;;;;5021580;28;20437;-79
2022/08/17 09:30:45;;;;;;;11.13;6.47;;;31.90;1.00;;;;;;5017409;28;20440;-80
2022/08/17 09:33:24;;;;;;;8.07;5.70;;;32.10;1.00;;;;;;5022283;28;20510;-79
2022/08/17 09:38:48;;;;;;;8.53;5.87;;;32.50;1.00;;;;;;5003219;28;21042;-81
2022/08/17 09:41:19;;;;;;;7.30;4.87;;;33.30;1.00;;;;;;5006760;28;20469;-81
2022/08/17 09:44:04;;;;;;;9.43;5.13;;;34.70;1.00;;;;;;5002555;28;20493;-81
2022/08/17 09:46:47;;;;;;;9.13;5.43;;;36.10;1.00;;;;;;4997591;28;20652;-81
2022/08/17 09:49:27;;;;;;;9.63;5.27;;;37.00;1.00;;;;;;5016851;28;21000;-79
2022/08/17 09:52:03;;;;;;;8.83;4.77;;;37.80;1.00;;;;;;5004085;28;20469;-85
2022/08/17 09:54:31;;;;;;;8.30;5.43;;;37.70;1.00;;;;;;5020604;28;21363;-85
2022/08/17 09:57:10;;;;;;;9.33;4.90;;;37.00;1.00;;;;;;5004896;28;20422;-84
2022/08/17 09:59:52;;;;;;;8.30;4.90;;;37.20;1.00;;;;;;4986218;28;20473;-84
2022/08/17 10:02:47;;;;;;;9.40;5.13;;;38.30;1.00;;;;;;5019191;28;20442;-79
2022/08/17 10:05:22;;;;;;;6.67;4.20;;;39.70;1.00;;;;;;5019689;28;20980;-80
2022/08/17 10:08:02;;;;;;;6.67;4.30;;;40.40;1.00;;;;;;5015926;28;20465;-80
2022/08/17 10:10:35;;;;;;;11.10;6.00;;;41.10;1.00;;;;;;5020873;28;20553;-79
2022/08/17 10:13:10;;;;;;;6.90;4.63;;;41.60;1.00;;;;;;5015188;28;25093;-80
2022/08/17 10:15:48;;;;;;;9.67;4.93;;;42.00;1.00;;;;;;5020685;28;20466;-84
2022/08/17 10:18:43;;;;;;;8.03;4.53;;;42.00;1.00;;;;;;5020594;28;20454;-84
2022/08/17 10:27:02;;;;;;;12.73;6.90;;;42.40;1.00;;;;;;5020595;28;20610;-83
2022/08/17 10:29:34;;;;;;;9.70;5.83;;;42.40;1.00;;;;;;5026789;28;20465;-79
2022/08/17 10:32:09;;;;;;;7.90;4.00;;;42.60;1.00;;;;;;5027773;28;20502;-80
2022/08/17 10:35:14;;;;;;;8.10;4.57;;;42.20;1.00;;;;;;5012403;28;20596;-79
2022/08/17 10:38:03;;;;;;;7.83;4.50;;;42.30;1.00;;;;;;5010381;28;20410;-78
2022/08/17 10:40:42;;;;;;;7.30;4.70;;;42.70;1.00;;;;;;5013783;28;20557;-79
2022/08/17 10:43:29;;;;;;;7.40;4.90;;;42.80;1.00;;;;;;5000172;28;20484;-78
2022/08/17 10:46:06;;;;;;;8.37;4.73;;;42.60;1.00;;;;;;5007363;28;20520;-79
2022/08/17 10:48:35;;;;;;;7.50;3.93;;;43.10;1.00;;;;;;5002517;28;20457;-81
2022/08/17 10:51:08;;;;;;;7.00;4.10;;;43.80;1.00;;;;;;5011068;28;20500;-80
2022/08/17 10:54:04;;;;;;;8.80;5.00;;;44.10;1.00;;;;;;5015168;28;20470;-78
2022/08/17 10:56:50;;;;;;;7.50;4.73;;;44.00;1.00;;;;;;5022320;28;20470;-80
2022/08/17 10:59:50;;;;;;;7.00;4.40;;;43.90;1.00;;;;;;5021050;28;20466;-84
2022/08/17 11:02:26;;;;;;;7.57;4.87;;;43.90;1.00;;;;;;5019286;28;21035;-79
2022/08/17 11:05:27;;;;;;;7.97;4.70;;;44.20;1.00;;;;;;5021120;28;20464;-83
2022/08/17 11:08:22;;;;;;;7.73;5.03;;;44.20;1.00;;;;;;4997029;28;20476;-83
2022/08/17 11:11:01;;;;;;;9.10;4.83;;;43.50;1.00;;;;;;5022159;28;20520;-80
2022/08/17 11:13:43;;;;;;;7.50;4.70;;;42.40;1.00;;;;;;5021410;28;20462;-84
2022/08/17 11:16:31;;;;;;;7.40;4.40;;;42.20;1.00;;;;;;5021488;28;20458;-84
2022/08/17 11:19:32;;;;;;;6.30;4.30;;;42.80;1.00;;;;;;5028129;28;20485;-83
2022/08/17 11:22:28;;;;;;;6.77;4.47;;;44.00;1.00;;;;;;5032940;28;20429;-79
2022/08/17 11:25:08;;;;;;;8.13;4.43;;;44.30;1.00;;;;;;5012841;28;20976;-82
2022/08/17 11:27:36;;;;;;;7.23;4.00;;;45.20;1.00;;;;;;5039561;28;20655;-80
2022/08/17 11:30:08;;;;;;;6.47;4.17;;;45.30;1.00;;;;;;5023505;28;20505;-79
2022/08/17 11:32:42;;;;;;;6.87;4.73;;;44.60;1.00;;;;;;5039388;28;20469;-85
2022/08/17 11:35:29;;;;;;;7.80;4.43;;;44.00;1.00;;;;;;5016756;28;20460;-82
2022/08/17 11:38:12;;;;;;;8.27;4.37;;;43.60;1.00;;;;;;5032527;28;21018;-84
2022/08/17 11:41:22;;;;;;;6.57;4.13;;;42.70;1.00;;;;;;5033513;28;20439;-82
2022/08/17 11:44:10;;;;;;;7.60;4.30;;;41.30;1.00;;;;;;5026024;28;20473;-86
2022/08/17 11:52:50;;;;;;;10.97;4.93;;;42.40;1.00;;;;;;5018307;28;20472;-84
2022/08/17 11:55:46;;;;;;;8.13;4.57;;;43.50;1.00;;;;;;5028113;28;20441;-87
2022/08/17 11:58:36;;;;;;;10.20;6.10;;;43.60;1.00;;;;;;4987202;28;20460;-85
2022/08/17 12:01:06;;;;;;;10.70;4.40;;;44.10;1.00;;;;;;5021586;28;20470;-82
2022/08/17 12:03:47;;;;;;;7.00;4.40;;;43.20;1.00;;;;;;5037002;28;20655;-84
2022/08/17 12:06:41;;;;;;;7.50;4.00;;;42.20;1.00;;;;;;5009278;28;20449;-85
2022/08/17 12:09:15;;;;;;;7.27;4.63;;;41.30;1.00;;;;;;5015210;28;23235;-86
2022/08/17 12:11:51;;;;;;;7.87;4.33;;;40.40;1.00;;;;;;5013010;28;20408;-86
2022/08/17 12:14:35;;;;;;;7.83;4.73;;;39.40;1.00;;;;;;5041934;28;20493;-88
2022/08/17 12:17:08;;;;;;;7.27;5.33;;;38.80;1.00;;;;;;5034595;28;20475;-86
2022/08/17 12:19:36;;;;;;;9.53;8.07;;;39.30;1.00;;;;;;5003500;28;22354;-84
2022/08/17 12:22:11;;;;;;;7.43;4.57;;;41.30;1.00;;;;;;5022607;28;20427;-81
2022/08/17 12:24:53;;;;;;;9.17;7.57;;;42.70;1.00;;;;;;5011826;28;20460;-81
2022/08/17 12:27:26;;;;;;;6.80;5.03;;;42.30;1.00;;;;;;5017518;28;20431;-82
2022/08/17 12:29:54;;;;;;;9.30;4.47;;;41.20;1.00;;;;;;5015313;28;20464;-81
2022/08/17 12:32:33;;;;;;;9.00;5.70;;;40.20;1.00;;;;;;5017892;28;20561;-83
2022/08/17 12:35:25;;;;;;;7.40;4.73;;;39.00;1.00;;;;;;5006191;28;20460;-84
2022/08/17 12:37:53;;;;;;;7.30;4.60;;;38.10;1.00;;;;;;5015887;28;20481;-83
2022/08/17 12:40:22;;;;;;;8.47;5.97;;;37.50;1.00;;;;;;5013591;28;20577;-82
2022/08/17 12:55:25;;;;;;;9.10;5.23;;;37.80;1.00;;;;;;4900746;29;20403;-81
2022/08/17 12:57:58;;;;;;;8.73;4.37;;;39.40;1.00;;;;;;4915770;28;20450;-80
2022/08/17 13:00:28;;;;;;;9.63;4.93;;;39.90;1.00;;;;;;5013083;28;20503;-80
2022/08/17 13:03:00;;;;;;;9.13;4.80;;;40.10;1.00;;;;;;4995038;28;20464;-82
2022/08/17 13:05:35;;;;;;;6.40;4.00;;;40.90;1.00;;;;;;5007734;28;20470;-84
2022/08/17 13:08:14;;;;;;;7.30;4.10;;;42.40;1.00;;;;;;4988103;28;20522;-83
2022/08/17 13:10:41;;;;;;;7.57;4.10;;;44.10;1.00;;;;;;5013958;28;20418;-85
2022/08/17 13:13:22;;;;;;;8.17;4.90;;;44.80;1.00;;;;;;5017222;28;20863;-81
2022/08/17 13:15:54;;;;;;;7.00;4.67;;;45.90;1.00;;;;;;5011893;28;20482;-82
2022/08/17 13:18:46;;;;;;;8.03;4.97;;;47.10;1.00;;;;;;5016754;28;20459;-80
2022/08/17 13:21:26;;;;;;;7.10;4.77;;;47.90;1.00;;;;;;5003645;28;21397;-83
2022/08/17 13:24:06;;;;;;;9.70;5.40;;;47.80;1.00;;;;;;5004177;28;20461;-85
2022/08/17 13:26:35;;;;;;;8.37;4.77;;;47.90;1.00;;;;;;5016229;28;20468;-85
2022/08/17 13:29:22;;;;;;;8.90;5.30;;;48.00;1.00;;;;;;5019949;28;20448;-84
2022/08/17 13:31:52;;;;;;;8.73;4.53;;;48.40;1.00;;;;;;4988604;28;20512;-81
2022/08/17 13:34:35;;;;;;;7.30;4.90;;;48.40;1.00;;;;;;5014353;28;20537;-82
2022/08/17 13:37:31;;;;;;;7.13;5.33;;;48.10;1.00;;;;;;5009750;28;20410;-86
2022/08/17 13:40:25;;;;;;;9.60;5.20;;;47.30;1.00;;;;;;5005943;28;20469;-81
2022/08/17 13:42:54;;;;;;;8.23;4.87;;;46.70;1.00;;;;;;4998522;28;20425;-84
2022/08/17 13:45:36;;;;;;;9.03;4.77;;;45.70;1.00;;;;;;5006544;28;20498;-84
2022/08/17 13:48:22;;;;;;;6.83;4.10;;;45.70;1.00;;;;;;5011223;28;20461;-82
2022/08/17 13:51:12;;;;;;;6.80;4.70;;;46.50;1.00;;;;;;4980678;28;20486;-83
2022/08/17 13:53:52;;;;;;;9.20;4.50;;;46.60;1.00;;;;;;5004763;28;21295;-84
2022/08/17 13:56:36;;;;;;;7.47;4.40;;;45.00;1.00;;;;;;5012415;28;20448;-81
2022/08/17 13:59:08;;;;;;;9.93;5.83;;;43.40;1.00;;;;;;4999554;28;20596;-82
2022/08/17 14:01:41;;;;;;;9.17;7.17;;;42.60;1.00;;;;;;5007530;28;20489;-85
2022/08/17 14:04:16;;;;;;;8.40;4.73;;;41.70;1.00;;;;;;5006451;28;20948;-83
2022/08/17 14:06:54;;;;;;;9.10;5.40;;;40.60;1.00;;;;;;4983874;28;20469;-82
2022/08/17 14:09:24;;;;;;;8.93;5.27;;;40.30;1.00;;;;;;4978582;28;20545;-85
2022/08/17 14:11:54;;;;;;;8.43;4.53;;;40.50;1.00;;;;;;4984590;28;20454;-84
2022/08/17 14:14:25;;;;;;;7.27;5.40;;;40.90;1.00;;;;;;5016416;28;20495;-82
2022/08/17 14:16:52;;;;;;;9.60;4.90;;;41.10;1.00;;;;;;5014480;28;20485;-81
2022/08/17 14:19:25;;;;;;;8.07;5.57;;;40.70;1.00;;;;;;5014199;28;20458;-81
2022/08/17 14:21:57;;;;;;;7.30;4.70;;;40.40;1.00;;;;;;5017033;28;20438;-81
2022/08/17 14:24:30;;;;;;;12.10;6.30;;;40.30;1.00;;;;;;5018439;28;20422;-80
2022/08/17 14:27:02;;;;;;;7.80;6.10;;;39.70;1.00;;;;;;5022047;28;20837;-86
2022/08/17 14:29:36;;;;;;;8.27;5.23;;;39.10;1.00;;;;;;5024072;28;20466;-84
2022/08/17 14:32:11;;;;;;;12.03;6.67;;;38.80;1.00;;;;;;5024699;28;20486;-86
2022/08/17 14:34:43;;;;;;;8.27;5.07;;;38.20;1.00;;;;;;5026902;28;20470;-80
2022/08/17 14:37:11;;;;;;;10.10;5.50;;;37.70;1.00;;;;;;5025213;28;20436;-83
2022/08/17 14:39:38;;;;;;;10.03;9.03;;;37.30;1.00;;;;;;5020035;28;20501;-84
2022/08/17 14:42:07;;;;;;;11.03;5.80;;;37.10;1.00;;;;;;5022634;28;20462;-85
2022/08/17 14:44:37;;;;;;;10.50;6.40;;;37.00;1.00;;;;;;5013064;28;20481;-85
2022/08/17 14:47:05;;;;;;;8.50;5.03;;;36.90;1.00;;;;;;5022124;28;21441;-86
2022/08/17 14:49:35;;;;;;;7.97;5.50;;;36.70;1.00;;;;;;5028285;28;20430;-88
2022/08/17 14:52:05;;;;;;;7.47;4.90;;;36.70;1.00;;;;;;5021397;28;20860;-88
2022/08/17 14:54:44;;;;;;;6.70;4.57;;;36.60;1.00;;;;;;5023613;28;21300;-88
2022/08/17 14:57:16;;;;;;;7.87;5.73;;;36.60;1.00;;;;;;5023421;28;21247;-85
2022/08/17 14:59:45;;;;;;;10.10;5.73;;;36.50;1.00;;;;;;5012693;28;20399;-85
2022/08/17 15:02:12;;;;;;;7.27;4.80;;;36.20;1.00;;;;;;5021393;28;20441;-88
2022/08/17 15:04:46;;;;;;;7.43;5.00;;;35.90;1.00;;;;;;5018148;28;20496;-87
2022/08/17 15:07:13;;;;;;;9.80;5.77;;;35.70;1.00;;;;;;5025022;28;21394;-86
2022/08/17 15:09:45;;;;;;;13.20;5.20;;;35.60;1.00;;;;;;5017530;28;20485;-85
2022/08/17 15:12:17;;;;;;;9.70;5.40;;;35.40;1.00;;;;;;5019695;28;20478;-88
2022/08/17 15:14:46;;;;;;;8.17;5.43;;;35.30;1.00;;;;;;5017445;28;20415;-85
2022/08/17 15:17:13;;;;;;;7.80;5.70;;;35.30;1.00;;;;;;5018082;28;20461;-86
2022/08/17 15:19:45;;;;;;;12.13;7.37;;;35.30;1.00;;;;;;5018436;28;20457;-83
2022/08/17 15:22:25;;;;;;;9.23;5.43;;;35.30;1.00;;;;;;5022967;28;21711;-84
2022/08/17 15:24:56;;;;;;;10.17;6.70;;;35.20;1.00;;;;;;5021201;28;20449;-88
2022/08/17 15:27:27;;;;;;;8.27;4.93;;;35.30;1.00;;;;;;5028094;28;20558;-88
2022/08/17 15:29:55;;;;;;;7.83;5.33;;;35.30;1.00;;;;;;5020523;28;20461;-86
2022/08/17 15:32:27;;;;;;;8.57;5.10;;;35.40;1.00;;;;;;5019928;28;20572;-85
2022/08/17 15:34:57;;;;;;;11.53;6.60;;;35.60;1.00;;;;;;5007179;28;20422;-84
2022/08/17 15:37:28;;;;;;;8.57;5.60;;;35.90;1.00;;;;;;5016051;28;20465;-84
2022/08/17 15:39:59;;;;;;;9.70;6.70;;;36.40;1.00;;;;;;5022568;28;20397;-93
2022/08/17 15:42:28;;;;;;;7.40;5.60;;;37.60;1.00;;;;;;5023433;28;20456;-93
2022/08/17 15:44:58;;;;;;;10.17;6.20;;;37.60;1.00;;;;;;5015606;28;20414;-78
2022/08/17 15:47:25;;;;;;;8.53;5.63;;;37.10;1.00;;;;;;5012338;28;20489;-76
2022/08/17 15:49:52;;;;;;;9.03;6.20;;;36.60;1.00;;;;;;5012772;28;20978;-86
2022/08/17 15:52:25;;;;;;;8.20;5.90;;;36.40;1.00;;;;;;5013706;28;24014;-78
2022/08/17 15:54:53;;;;;;;7.50;5.60;;;36.30;1.00;;;;;;5010010;28;20462;-78
2022/08/17 15:57:27;;;;;;;10.13;6.57;;;36.20;1.00;;;;;;5019323;28;20435;-78
2022/08/17 15:59:57;;;;;;;8.40;5.50;;;36.90;1.00;;;;;;5011044;28;20533;-77
2022/08/17 16:02:30;;;;;;;7.47;5.20;;;37.60;1.00;;;;;;5019285;28;20439;-85
2022/08/17 16:05:09;;;;;;;9.50;5.90;;;38.40;1.00;;;;;;5015404;28;20457;-76
2022/08/17 16:07:36;;;;;;;9.77;6.37;;;39.10;1.00;;;;;;5010094;28;20459;-78
2022/08/17 16:10:07;;;;;;;7.40;5.50;;;39.70;1.00;;;;;;5018746;28;21260;-83
2022/08/17 16:12:36;;;;;;;8.00;5.93;;;40.20;1.00;;;;;;5022462;28;20466;-77
2022/08/17 16:15:07;;;;;;;8.13;6.73;;;40.90;1.00;;;;;;5017117;28;20875;-86
2022/08/17 16:17:34;;;;;;;11.00;5.73;;;41.10;1.00;;;;;;5022021;28;20526;-77
2022/08/17 16:20:06;;;;;;;9.33;6.10;;;41.20;1.00;;;;;;5017271;28;20452;-78
2022/08/17 16:22:36;;;;;;;8.13;5.60;;;41.00;1.00;;;;;;5009326;28;20929;-86
2022/08/17 16:25:10;;;;;;;8.40;6.33;;;40.70;1.00;;;;;;5026736;28;20437;-85
2022/08/17 16:27:38;;;;;;;8.63;5.83;;;40.20;1.00;;;;;;5023396;28;20537;-80
2022/08/17 16:30:08;;;;;;;8.73;6.57;;;39.40;1.00;;;;;;5020981;28;20422;-80
2022/08/17 16:32:36;;;;;;;8.20;5.50;;;38.70;1.00;;;;;;5022166;28;20593;-77
2022/08/17 16:35:07;;;;;;;12.63;7.17;;;37.60;1.00;;;;;;5020167;28;20472;-78
2022/08/17 16:37:38;;;;;;;11.20;5.87;;;36.70;1.00;;;;;;5019456;28;20436;-78
2022/08/17 16:40:08;;;;;;;15.10;12.17;;;35.90;1.00;;;;;;5017636;28;20521;-79
2022/08/17 16:42:44;;;;;;;11.80;8.70;;;35.40;1.00;;;;;;5022362;28;20472;-76
2022/08/17 16:45:15;;;;;;;9.80;6.13;;;34.80;1.00;;;;;;4987585;28;20457;-77
2022/08/17 16:47:48;;;;;;;29.10;26.40;;;34.30;1.00;;;;;;5014863;28;20485;-76
2022/08/17 16:50:19;;;;;;;11.10;6.87;;;33.90;1.00;;;;;;5025422;28;20425;-86
2022/08/17 16:52:48;;;;;;;12.90;7.00;;;33.60;1.00;;;;;;5017895;28;20450;-78
2022/08/17 16:55:19;;;;;;;11.70;7.43;;;33.30;1.00;;;;;;5018781;28;20636;-78
2022/08/17 16:57:47;;;;;;;10.47;6.77;;;33.10;1.00;;;;;;5007108;28;20470;-79
2022/08/17 17:00:18;;;;;;;9.57;6.37;;;33.00;1.00;;;;;;5009862;28;20553;-78
2022/08/17 17:02:48;;;;;;;10.10;6.70;;;32.90;1.00;;;;;;5018137;28;20446;-85
2022/08/17 17:05:41;;;;;;;13.43;8.00;;;32.80;1.00;;;;;;5009993;28;20462;-79
2022/08/17 17:08:16;;;;;;;9.77;7.13;;;32.90;1.00;;;;;;5020131;28;20472;-80
2022/08/17 17:10:49;;;;;;;11.37;7.73;;;33.00;1.00;;;;;;5021937;28;20438;-84
2022/08/17 17:13:27;;;;;;;11.73;6.73;;;33.30;1.00;;;;;;5018197;28;20509;-77
2022/08/17 17:15:58;;;;;;;10.50;7.13;;;33.40;1.00;;;;;;5011672;28;20453;-79
2022/08/17 17:18:39;;;;;;;19.27;17.20;;;33.50;1.00;;;;;;5021643;28;20433;-77
2022/08/17 17:21:14;;;;;;;9.03;6.10;;;33.40;1.00;;;;;;5035545;28;20441;-77
2022/08/17 17:23:54;;;;;;;10.90;7.97;;;33.30;1.00;;;;;;5037870;28;20613;-78
2022/08/17 17:26:55;;;;;;;11.87;7.63;;;33.30;1.00;;;;;;5037531;28;20492;-83
2022/08/17 17:29:39;;;;;;;9.50;7.57;;;33.20;1.00;;;;;;5020488;28;20465;-77
2022/08/17 17:32:19;;;;;;;11.77;7.53;;;32.90;1.00;;;;;;5036553;28;20460;-76
2022/08/17 17:34:55;;;;;;;11.80;7.63;;;32.60;1.00;;;;;;5033046;28;20437;-82
2022/08/17 17:37:33;;;;;;;10.80;8.07;;;32.40;1.00;;;;;;5029020;28;20546;-83
2022/08/17 17:40:04;;;;;;;11.83;8.13;;;32.20;1.00;;;;;;5034515;28;26432;-86
2022/08/17 17:42:40;;;;;;;9.93;8.03;;;32.00;1.00;;;;;;5041929;28;20473;-84
2022/08/17 17:45:24;;;;;;;13.00;8.70;;;31.80;1.00;;;;;;5045896;28;20522;-76
2022/08/17 17:47:56;;;;;;;12.27;9.63;;;31.50;1.00;;;;;;5042857;28;20460;-76
2022/08/17 17:50:44;;;;;;;13.93;10.40;;;31.40;1.00;;;;;;5044410;28;20461;-81
2022/08/17 17:53:19;;;;;;;12.50;10.40;;;31.20;1.00;;;;;;5040425;28;20433;-78
2022/08/17 17:56:01;;;;;;;13.83;11.20;;;31.00;1.00;;;;;;5040091;28;20473;-78
2022/08/17 17:58:43;;;;;;;13.60;11.07;;;30.80;1.00;;;;;;5044809;28;20436;-81
2022/08/17 18:01:40;;;;;;;15.63;10.97;;;30.60;1.00;;;;;;5045741;28;20464;-78
2022/08/17 18:04:24;;;;;;;12.03;10.07;;;30.50;1.00;;;;;;5043180;28;20540;-82
2022/08/17 18:07:09;;;;;;;11.07;9.90;;;30.30;1.00;;;;;;5046902;28;20483;-87
2022/08/17 18:10:00;;;;;;;14.67;11.47;;;30.20;1.00;;;;;;5038003;28;20464;-80
2022/08/17 18:12:39;;;;;;;14.90;10.13;;;30.10;1.00;;;;;;5045423;28;20547;-79
2022/08/17 18:15:24;;;;;;;15.13;10.80;;;30.00;1.00;;;;;;5042406;28;20458;-81
2022/08/17 18:18:31;;;;;;;12.03;9.57;;;29.90;1.00;;;;;;5038339;28;20485;-81
2022/08/17 18:21:05;;;;;;;12.83;9.10;;;29.80;1.00;;;;;;5022531;28;20436;-78
2022/08/17 18:23:36;;;;;;;10.90;9.00;;;29.60;1.00;;;;;;5018905;28;20521;-81
2022/08/17 18:26:03;;;;;;;13.13;9.40;;;29.60;1.00;;;;;;5022086;28;20450;-79
2022/08/17 18:28:42;;;;;;;14.00;9.60;;;29.50;1.00;;;;;;5017179;28;20474;-78
2022/08/17 18:31:17;;;;;;;11.77;8.90;;;29.40;1.00;;;;;;5004503;28;20520;-79
2022/08/17 18:33:48;;;;;;;11.03;9.20;;;29.30;1.00;;;;;;5019744;28;20492;-78
2022/08/17 18:36:28;;;;;;;12.20;9.50;;;29.30;1.00;;;;;;5021789;28;20442;-78
2022/08/17 18:39:10;;;;;;;15.10;10.50;;;29.20;1.00;;;;;;5025490;28;20500;-78
2022/08/17 18:41:42;;;;;;;11.80;7.90;;;29.10;1.00;;;;;;5017182;28;20414;-78
2022/08/17 18:44:24;;;;;;;11.30;9.43;;;29.10;1.00;;;;;;5017062;28;20917;-78
2022/08/17 18:47:07;;;;;;;11.83;8.73;;;29.10;1.00;;;;;;5016840;28;20891;-81
2022/08/17 18:49:47;;;;;;;10.40;7.77;;;29.00;1.00;;;;;;5018634;28;20509;-79
2022/08/17 18:52:27;;;;;;;10.50;9.20;;;29.00;1.00;;;;;;5021452;28;20464;-83
2022/08/17 18:55:04;;;;;;;12.60;9.93;;;28.90;1.00;;;;;;5020825;28;20487;-77
2022/08/17 18:57:38;;;;;;;12.17;9.23;;;28.80;1.00;;;;;;5024548;28;20461;-81
2022/08/17 19:00:16;;;;;;;11.73;8.87;;;28.70;1.00;;;;;;5024588;28;20497;-82
2022/08/17 19:02:56;;;;;;;11.60;8.90;;;28.70;1.00;;;;;;5022370;28;20465;-81
2022/08/17 19:05:41;;;;;;;11.67;8.90;;;28.60;1.00;;;;;;5017190;28;20453;-79
2022/08/17 19:08:36;;;;;;;12.60;9.50;;;28.50;1.00;;;;;;5018341;28;20497;-78
2022/08/17 19:11:07;;;;;;;11.53;9.87;;;28.50;1.00;;;;;;5009589;28;20630;-81
2022/08/17 19:13:46;;;;;;;12.33;9.53;;;28.40;1.00;;;;;;5014271;28;20481;-81
2022/08/17 19:16:22;;;;;;;11.90;10.20;;;28.40;1.00;;;;;;5017998;28;20438;-77
2022/08/17 19:18:58;;;;;;;13.00;9.00;;;28.30;1.00;;;;;;5028905;28;20462;-81
2022/08/17 19:21:36;;;;;;;11.23;9.53;;;28.20;1.00;;;;;;5023552;28;20474;-77
2022/08/17 19:24:09;;;;;;;12.10;9.13;;;28.10;1.00;;;;;;5023810;28;20556;-76
2022/08/17 19:26:43;;;;;;;13.10;10.37;;;28.10;1.00;;;;;;5024431;28;20444;-78
2022/08/17 19:29:17;;;;;;;12.13;8.97;;;28.10;1.00;;;;;;5021610;28;20544;-78
2022/08/17 19:31:45;;;;;;;15.47;10.03;;;28.00;1.00;;;;;;5023372;28;20906;-82
2022/08/17 19:34:18;;;;;;;11.47;9.70;;;28.00;1.00;;;;;;5023267;28;20453;-79
2022/08/17 19:36:57;;;;;;;10.40;9.10;;;27.90;1.00;;;;;;5033286;28;20503;-87
2022/08/17 19:39:39;;;;;;;10.03;8.33;;;27.90;1.00;;;;;;5026859;28;20474;-79
2022/08/17 19:42:17;;;;;;;10.30;8.87;;;27.90;1.00;;;;;;5024731;28;20942;-78
2022/08/17 19:45:00;;;;;;;10.30;9.17;;;27.80;1.00;;;;;;5019250;28;20442;-78
2022/08/17 19:47:40;;;;;;;12.20;9.07;;;27.80;1.00;;;;;;5028587;28;20552;-88
2022/08/17 19:50:20;;;;;;;9.83;8.40;;;27.80;1.00;;;;;;5029931;28;20553;-86
2022/08/17 19:53:00;;;;;;;9.30;8.07;;;27.80;1.00;;;;;;5027797;28;20481;-82
2022/08/17 19:55:42;;;;;;;10.30;8.93;;;27.80;1.00;;;;;;5030047;28;20872;-77
2022/08/17 19:58:21;;;;;;;12.40;9.10;;;27.70;1.00;;;;;;5020660;28;20473;-78
2022/08/17 20:00:56;;;;;;;10.77;9.30;;;27.70;1.00;;;;;;5026422;28;20536;-87
2022/08/17 20:03:32;;;;;;;11.73;9.17;;;27.70;1.00;;;;;;5030833;28;20479;-81
2022/08/17 20:06:03;;;;;;;12.13;10.93;;;27.60;1.00;;;;;;5029098;28;20457;-80
2022/08/17 20:08:39;;;;;;;9.90;8.90;;;27.60;1.00;;;;;;5024538;28;20497;-81
2022/08/17 20:11:09;;;;;;;15.30;11.03;;;27.60;1.00;;;;;;5014082;28;20503;-81
2022/08/17 20:13:41;;;;;;;11.50;10.00;;;27.50;1.00;;;;;;5028844;28;21570;-81
2022/08/17 20:16:10;;;;;;;10.77;9.37;;;27.50;1.00;;;;;;5018407;28;20535;-79
2022/08/17 20:18:51;;;;;;;11.47;10.27;;;27.40;1.00;;;;;;5022743;28;20430;-88
2022/08/17 20:21:25;;;;;;;10.63;9.53;;;27.40;1.00;;;;;;5030246;28;20527;-80
2022/08/17 20:24:00;;;;;;;12.67;9.20;;;27.40;1.00;;;;;;5026712;28;20477;-80
2022/08/17 20:26:44;;;;;;;10.60;9.00;;;27.30;1.00;;;;;;5031667;28;20461;-84
2022/08/17 20:29:43;;;;;;;11.80;9.60;;;27.40;1.00;;;;;;5027526;28;20432;-81
2022/08/17 20:32:29;;;;;;;20.47;18.37;;;27.30;1.00;;;;;;5027536;28;20981;-81